createdAt,value
2023-02-25T00:03:48.756Z,4
2023-02-25T00:09:41.888Z,3.8
2023-02-25T00:15:35.705Z,3.9
2023-02-25T00:21:29.710Z,4
2023-02-25T00:27:31.352Z,3.8
2023-02-25T00:33:24.754Z,3.8
2023-02-25T00:39:23.150Z,3.7
2023-02-25T00:45:16.191Z,3.5
2023-02-25T00:51:00.933Z,3.5
2023-02-25T00:56:54.492Z,3.4
2023-02-25T01:02:53.029Z,3.5
2023-02-25T01:08:48.723Z,3.6
2023-02-25T01:14:42.925Z,3.6
2023-02-25T01:20:05.720Z,3.4
2023-02-25T01:25:43.090Z,3.3
2023-02-25T01:31:37.188Z,3.3
2023-02-25T01:37:30.945Z,3.3
2023-02-25T01:43:24.394Z,3.3
2023-02-25T01:49:17.590Z,2.9
2023-02-25T01:55:11.314Z,3.4
2023-02-25T02:01:04.500Z,3.4
2023-02-25T02:06:57.874Z,3.5
2023-02-25T02:12:51.292Z,3.8
2023-02-25T02:18:44.995Z,3.3
2023-02-25T02:24:37.832Z,3
2023-02-25T02:30:29.334Z,3
2023-02-25T02:36:07.768Z,3.1
2023-02-25T02:41:45.470Z,3.3
2023-02-25T02:47:38.566Z,2.9
2023-02-25T02:53:31.240Z,3.1
2023-02-25T02:59:08.766Z,2.6
2023-02-25T03:05:02.041Z,3.2
2023-02-25T03:10:40.563Z,2.6
2023-02-25T03:16:02.237Z,2.4
2023-02-25T03:21:40.236Z,2.4
2023-02-25T03:27:18.856Z,2.2
2023-02-25T03:32:56.501Z,1.7
2023-02-25T03:38:33.029Z,1.3
2023-02-25T03:44:10.791Z,1.3
2023-02-25T03:49:49.463Z,1.3
2023-02-25T03:55:11.546Z,1.6
2023-02-25T04:00:49.576Z,1.5
2023-02-25T04:06:43.459Z,1.7
2023-02-25T04:12:19.742Z,1.8
2023-02-25T04:17:42.421Z,2.4
2023-02-25T04:23:35.621Z,2.1
2023-02-25T04:28:57.651Z,2.1
2023-02-25T04:34:52.674Z,1.8
2023-02-25T04:40:46.665Z,2.3
2023-02-25T04:46:40.652Z,1.9
2023-02-25T04:52:34.536Z,2.3
2023-02-25T04:58:27.442Z,2.3
2023-02-25T05:04:20.269Z,1.7
2023-02-25T05:10:16.121Z,1.6
2023-02-25T05:16:09.050Z,1.5
2023-02-25T05:21:32.293Z,1.7
2023-02-25T05:27:25.521Z,1.8
2023-02-25T05:33:19.723Z,1.8
2023-02-25T05:38:57.045Z,1.9
2023-02-25T05:44:33.944Z,2.1
2023-02-25T05:50:27.386Z,2.2
2023-02-25T05:56:03.196Z,2.3
2023-02-25T06:01:41.505Z,2.6
2023-02-25T06:07:19.031Z,2.9
2023-02-25T06:12:40.406Z,2.9
2023-02-25T06:18:34.775Z,3.1
2023-02-25T06:24:12.181Z,3.4
2023-02-25T06:30:05.541Z,3.8
2023-02-25T06:35:45.140Z,4.1
2023-02-25T06:41:22.469Z,4.3
2023-02-25T06:47:16.542Z,5
2023-02-25T06:52:54.727Z,5.1
2023-02-25T06:58:32.306Z,5.3
2023-02-25T07:04:09.061Z,5.6
2023-02-25T07:10:04.991Z,5.9
2023-02-25T07:15:27.353Z,6
2023-02-25T07:20:49.413Z,6.3
2023-02-25T07:26:26.586Z,6.7
2023-02-25T07:32:20.797Z,6.9
2023-02-25T07:38:13.931Z,7.3
2023-02-25T07:44:06.177Z,7.7
2023-02-25T07:49:59.147Z,7.7
2023-02-25T07:55:52.670Z,8.2
2023-02-25T08:01:48.952Z,8.6
2023-02-25T08:07:44.319Z,9.8
2023-02-25T08:13:37.197Z,10
2023-02-25T08:19:30.436Z,10.2
2023-02-25T08:25:24.218Z,10.1
2023-02-25T08:31:18.280Z,10.1
2023-02-25T08:36:57.611Z,10.3
2023-02-25T08:42:53.219Z,10.2
2023-02-25T08:48:45.830Z,10.3
2023-02-25T08:54:39.072Z,10.1
2023-02-25T09:00:31.859Z,9.7
2023-02-25T09:06:27.474Z,9.6
2023-02-25T09:12:34.248Z,9.6
2023-02-25T09:18:11.585Z,9.9
2023-02-25T09:24:04.040Z,10.2
2023-02-25T09:29:57.051Z,9.9
2023-02-25T09:35:51.531Z,9.9
2023-02-25T09:41:43.349Z,9.9
2023-02-25T09:47:36.467Z,9.9
2023-02-25T09:53:16.814Z,10.9
2023-02-25T09:58:54.723Z,11.3
2023-02-25T10:04:33.747Z,11.1
2023-02-25T10:10:10.939Z,12.8
2023-02-25T10:15:52.622Z,12.5
2023-02-25T10:21:15.151Z,13.6
2023-02-25T10:26:51.716Z,13.7
2023-02-25T10:32:44.821Z,14.3
2023-02-25T10:38:37.542Z,14.4
2023-02-25T10:44:30.999Z,14.4
2023-02-25T10:50:27.640Z,14.6
2023-02-25T10:56:23.151Z,14.8
2023-02-25T11:02:17.310Z,14.6
2023-02-25T11:08:10.066Z,14.8
2023-02-25T11:14:04.097Z,14.8
2023-02-25T11:20:16.558Z,14.9
2023-02-25T11:26:09.069Z,15
2023-02-25T11:32:02.963Z,15
2023-02-25T11:38:02.106Z,15.1
2023-02-25T11:43:54.726Z,15.2
2023-02-25T11:49:48.158Z,15.3
2023-02-25T11:55:25.731Z,15.3
2023-02-25T12:01:02.620Z,15.4
2023-02-25T12:06:56.546Z,15.4
2023-02-25T12:13:02.906Z,15.4
2023-02-25T12:18:39.996Z,15.4
2023-02-25T12:24:33.401Z,15.4
2023-02-25T12:30:26.047Z,15.4
2023-02-25T12:36:18.754Z,15.4
2023-02-25T12:42:15.597Z,15.6
2023-02-25T12:48:09.033Z,15.6
2023-02-25T12:54:02.719Z,15.6
2023-02-25T12:59:40.886Z,15.8
2023-02-25T13:05:34.998Z,15.9
2023-02-25T13:11:28.004Z,16.1
2023-02-25T13:17:46.605Z,15.8
2023-02-25T13:23:40.217Z,15.8
2023-02-25T13:29:32.719Z,15.8
2023-02-25T13:35:27.225Z,15.7
2023-02-25T13:41:04.419Z,15.7
2023-02-25T13:46:56.741Z,15.6
2023-02-25T13:52:53.052Z,15.6
2023-02-25T13:58:45.575Z,15.5
2023-02-25T14:04:37.818Z,15.4
2023-02-25T14:10:30.170Z,15.4
2023-02-25T14:16:28.130Z,15.5
2023-02-25T14:22:21.562Z,15.6
2023-02-25T14:27:59.754Z,15.6
2023-02-25T14:33:38.585Z,15.6
2023-02-25T14:39:31.096Z,15.6
2023-02-25T14:45:24.701Z,15.6
2023-02-25T14:51:17.081Z,15.5
2023-02-25T14:57:09.371Z,15.5
2023-02-25T15:03:03.079Z,15.5
2023-02-25T15:08:58.115Z,15.5
2023-02-25T15:14:51.033Z,15.4
2023-02-25T15:20:44.457Z,15.3
2023-02-25T15:26:22.698Z,15.3
2023-02-25T15:32:15.057Z,15.3
2023-02-25T15:38:10.128Z,15.3
2023-02-25T15:44:02.040Z,15.3
2023-02-25T15:49:26.308Z,15.3
2023-02-25T15:55:19.725Z,15.1
2023-02-25T16:00:58.878Z,15.1
2023-02-25T16:06:55.595Z,15.1
2023-02-25T16:12:48.504Z,15
2023-02-25T16:18:42.514Z,15
2023-02-25T16:24:34.879Z,15.2
2023-02-25T16:30:27.878Z,15
2023-02-25T16:36:26.388Z,15
2023-02-25T16:42:11.497Z,15
2023-02-25T16:48:05.282Z,14.9
2023-02-25T16:53:59.079Z,14.8
2023-02-25T16:59:51.471Z,14.8
2023-02-25T17:05:30.114Z,14.7
2023-02-25T17:11:23.309Z,14.6
2023-02-25T17:17:16.957Z,14.5
2023-02-25T17:22:55.726Z,14.6
2023-02-25T17:28:49.316Z,14.5
2023-02-25T17:34:43.313Z,14.6
2023-02-25T17:40:39.598Z,14.4
2023-02-25T17:46:33.478Z,14.6
2023-02-25T17:52:27.532Z,14.3
2023-02-25T17:58:22.885Z,14.4
2023-02-25T18:04:17.845Z,14.5
2023-02-25T18:10:11.702Z,14.6
2023-02-25T18:16:16.150Z,14.5
2023-02-25T18:22:10.477Z,14.6
2023-02-25T18:28:04.086Z,14.5
2023-02-25T18:33:59.437Z,14.4
2023-02-25T18:39:39.406Z,14.4
2023-02-25T18:45:33.648Z,14.3
2023-02-25T18:51:29.081Z,14.4
2023-02-25T18:57:23.405Z,14.3
2023-02-25T19:03:00.848Z,14.3
2023-02-25T19:08:54.570Z,14.4
2023-02-25T19:14:48.572Z,14.3
2023-02-25T19:20:43.241Z,14.3
2023-02-25T19:26:35.580Z,14.3
2023-02-25T19:32:29.325Z,14.3
2023-02-25T19:38:08.486Z,14.3
2023-02-25T19:44:02.458Z,14.1
2023-02-25T19:49:56.314Z,14
2023-02-25T19:55:50.005Z,14
2023-02-25T20:01:45.058Z,13.9
2023-02-25T20:07:39.404Z,13.9
2023-02-25T20:13:32.516Z,14
2023-02-25T20:19:27.802Z,13.9
2023-02-25T20:25:24.309Z,14
2023-02-25T20:31:17.291Z,14
2023-02-25T20:36:58.861Z,13.9
2023-02-25T20:42:52.124Z,14.1
2023-02-25T20:48:47.768Z,14.1
2023-02-25T20:54:40.974Z,14
2023-02-25T21:00:34.283Z,14.1
2023-02-25T21:06:27.576Z,14.2
2023-02-25T21:12:22.413Z,14.1
2023-02-25T21:18:17.681Z,14.3
2023-02-25T21:24:10.540Z,14.6
2023-02-25T21:30:04.391Z,14.5
2023-02-25T21:36:00.363Z,14.6
2023-02-25T21:41:52.950Z,14.5
2023-02-25T21:47:46.057Z,14.5
2023-02-25T21:53:39.071Z,14.5
2023-02-25T21:59:31.270Z,14.4
2023-02-25T22:05:25.531Z,14.4
2023-02-25T22:11:18.526Z,14.4
2023-02-25T22:17:10.797Z,14.3
2023-02-25T22:23:05.550Z,14.3
2023-02-25T22:28:59.833Z,14.3
2023-02-25T22:34:52.988Z,14.2
2023-02-25T22:40:30.535Z,14.2
2023-02-25T22:46:24.129Z,14.2
2023-02-25T22:52:00.085Z,14.1
2023-02-25T22:57:52.320Z,14.1
2023-02-25T23:03:44.339Z,14.2
2023-02-25T23:09:51.096Z,14.1
2023-02-25T23:15:45.699Z,13.9
2023-02-25T23:21:38.885Z,14
2023-02-25T23:27:31.025Z,14
2023-02-25T23:33:23.891Z,13.9
2023-02-25T23:39:17.728Z,13.9
2023-02-25T23:45:11.709Z,13.8
2023-02-25T23:51:08.018Z,13.9
2023-02-25T23:57:01.660Z,13.9
